createdAt,value
2022-10-19T00:00:03.358Z,59.84
2022-10-19T00:03:13.183Z,59.76
2022-10-19T00:06:25.734Z,59.55
2022-10-19T00:09:22.769Z,59.69
2022-10-19T00:12:17.524Z,59.73
2022-10-19T00:15:13.306Z,59.56
2022-10-19T00:18:07.299Z,59.42
2022-10-19T00:21:08.817Z,59.46
2022-10-19T00:24:03.066Z,59.50
2022-10-19T00:26:57.142Z,59.33
2022-10-19T00:29:52.687Z,59.48
2022-10-19T00:32:47.035Z,59.44
2022-10-19T00:35:44.124Z,59.44
2022-10-19T00:38:38.312Z,59.41
2022-10-19T00:41:33.521Z,59.39
2022-10-19T00:45:06.022Z,59.41
2022-10-19T00:48:00.082Z,59.38
2022-10-19T00:50:54.530Z,59.31
2022-10-19T00:53:48.487Z,59.22
2022-10-19T00:56:44.613Z,59.28
2022-10-19T00:59:38.633Z,59.23
2022-10-19T01:02:32.934Z,59.32
2022-10-19T01:05:27.164Z,59.25
2022-10-19T01:08:21.283Z,59.20
2022-10-19T01:11:24.865Z,59.06
2022-10-19T01:14:34.056Z,59.10
2022-10-19T01:17:34.640Z,59.02
2022-10-19T01:21:02.791Z,58.99
2022-10-19T01:24:43.741Z,58.97
2022-10-19T01:27:49.096Z,58.85
2022-10-19T01:30:48.937Z,58.86
2022-10-19T01:33:48.571Z,58.77
2022-10-19T01:36:44.693Z,58.73
2022-10-19T01:39:40.047Z,58.74
2022-10-19T01:42:37.137Z,58.70
2022-10-19T01:45:33.211Z,58.55
2022-10-19T01:48:26.592Z,58.51
2022-10-19T01:51:23.028Z,58.53
2022-10-19T01:54:18.207Z,58.40
2022-10-19T01:57:15.180Z,58.35
2022-10-19T02:00:12.041Z,58.31
2022-10-19T02:03:06.208Z,58.29
2022-10-19T02:06:00.213Z,58.28
2022-10-19T02:08:56.807Z,58.24
2022-10-19T02:11:56.147Z,58.22
2022-10-19T02:14:54.530Z,58.16
2022-10-19T02:17:51.434Z,58.14
2022-10-19T02:20:45.464Z,58.13
2022-10-19T02:23:39.476Z,58.08
2022-10-19T02:26:33.546Z,58.04
2022-10-19T02:29:27.854Z,58.00
2022-10-19T02:32:22.110Z,57.96
2022-10-19T02:35:16.584Z,57.93
2022-10-19T02:38:11.873Z,57.90
2022-10-19T02:41:12.587Z,57.85
2022-10-19T02:44:10.716Z,57.80
2022-10-19T02:47:06.400Z,57.74
2022-10-19T02:50:00.451Z,57.73
2022-10-19T02:52:54.635Z,57.70
2022-10-19T02:55:49.635Z,57.65
2022-10-19T02:58:43.645Z,57.64
2022-10-19T03:01:37.728Z,57.60
2022-10-19T03:04:32.003Z,57.57
2022-10-19T03:07:26.053Z,57.52
2022-10-19T03:10:20.342Z,57.47
2022-10-19T03:13:14.361Z,57.43
2022-10-19T03:16:13.201Z,57.40
2022-10-19T03:19:07.241Z,57.41
2022-10-19T03:22:01.256Z,57.42
2022-10-19T03:24:55.308Z,57.48
2022-10-19T03:27:49.362Z,57.48
2022-10-19T03:30:43.416Z,57.51
2022-10-19T03:33:37.768Z,57.57
2022-10-19T03:36:33.726Z,57.72
2022-10-19T03:39:27.739Z,57.78
2022-10-19T03:42:21.882Z,57.82
2022-10-19T03:45:16.247Z,57.93
2022-10-19T03:48:10.853Z,57.97
2022-10-19T03:51:06.536Z,58.06
2022-10-19T03:54:02.018Z,58.11
2022-10-19T03:56:56.090Z,58.20
2022-10-19T03:59:50.160Z,58.20
2022-10-19T04:02:44.453Z,58.28
2022-10-19T04:05:38.870Z,58.35
2022-10-19T04:08:33.455Z,58.42
2022-10-19T04:11:29.331Z,58.46
2022-10-19T04:14:31.877Z,58.50
2022-10-19T04:17:31.061Z,58.42
2022-10-19T04:20:25.171Z,58.46
2022-10-19T04:23:19.563Z,58.51
2022-10-19T04:26:13.829Z,58.58
2022-10-19T04:29:08.358Z,58.59
2022-10-19T04:32:04.199Z,58.69
2022-10-19T04:34:58.378Z,58.68
2022-10-19T04:37:52.419Z,58.74
2022-10-19T04:40:47.773Z,58.76
2022-10-19T04:43:49.294Z,58.78
2022-10-19T04:46:44.679Z,58.82
2022-10-19T04:49:46.417Z,58.88
2022-10-19T04:52:40.700Z,58.86
2022-10-19T04:55:34.866Z,58.89
2022-10-19T04:58:29.054Z,58.92
2022-10-19T05:01:24.117Z,58.91
2022-10-19T05:04:18.511Z,59.00
2022-10-19T05:07:12.535Z,59.04
2022-10-19T05:10:07.246Z,59.07
2022-10-19T05:13:03.203Z,59.10
2022-10-19T05:16:05.328Z,59.16
2022-10-19T05:18:59.950Z,59.21
2022-10-19T05:21:54.293Z,59.17
2022-10-19T05:24:48.330Z,59.43
2022-10-19T05:27:43.333Z,59.48
2022-10-19T05:30:38.897Z,59.51
2022-10-19T05:33:33.000Z,59.57
2022-10-19T05:36:28.638Z,59.67
2022-10-19T05:39:22.923Z,59.83
2022-10-19T05:42:16.958Z,59.82
2022-10-19T05:45:12.769Z,59.40
2022-10-19T05:48:09.744Z,59.39
2022-10-19T05:51:05.366Z,59.47
2022-10-19T05:53:59.931Z,59.39
2022-10-19T05:56:54.111Z,59.57
2022-10-19T05:59:48.092Z,59.22
2022-10-19T06:02:42.172Z,59.28
2022-10-19T06:05:38.382Z,59.20
2022-10-19T06:08:30.863Z,59.17
2022-10-19T06:11:26.511Z,59.13
2022-10-19T06:14:20.845Z,59.15
2022-10-19T06:17:16.404Z,59.13
2022-10-19T06:20:13.514Z,59.16
2022-10-19T06:23:08.003Z,59.23
2022-10-19T06:26:03.161Z,59.19
2022-10-19T06:29:00.807Z,59.22
2022-10-19T06:31:56.332Z,59.16
2022-10-19T06:34:53.040Z,59.21
2022-10-19T06:37:50.361Z,59.38
2022-10-19T06:40:44.594Z,59.54
2022-10-19T06:43:38.782Z,59.71
2022-10-19T06:46:34.105Z,59.81
2022-10-19T06:49:28.577Z,59.73
2022-10-19T06:52:22.721Z,59.67
2022-10-19T06:55:18.148Z,59.66
2022-10-19T06:58:12.406Z,59.59
2022-10-19T07:01:07.766Z,59.61
2022-10-19T07:04:02.796Z,59.59
2022-10-19T07:06:56.968Z,59.58
2022-10-19T07:09:53.654Z,59.57
2022-10-19T07:12:47.802Z,59.55
2022-10-19T07:15:42.777Z,59.55
2022-10-19T07:18:37.515Z,59.52
2022-10-19T07:21:32.229Z,59.52
2022-10-19T07:24:26.882Z,59.48
2022-10-19T07:27:20.988Z,59.47
2022-10-19T07:30:15.629Z,59.49
2022-10-19T07:33:09.686Z,59.47
2022-10-19T07:36:05.879Z,59.48
2022-10-19T07:39:00.015Z,59.42
2022-10-19T07:41:54.291Z,59.35
2022-10-19T07:44:48.470Z,59.35
2022-10-19T07:47:42.666Z,59.40
2022-10-19T07:50:36.921Z,59.43
2022-10-19T07:53:31.461Z,59.39
2022-10-19T07:56:27.433Z,59.39
2022-10-19T07:59:21.599Z,59.38
2022-10-19T08:02:18.321Z,59.37
2022-10-19T08:05:13.463Z,59.36
2022-10-19T08:08:08.142Z,59.37
2022-10-19T08:11:09.470Z,59.41
2022-10-19T08:14:04.048Z,59.37
2022-10-19T08:16:58.544Z,59.39
2022-10-19T08:19:52.759Z,59.39
2022-10-19T08:22:46.977Z,59.40
2022-10-19T08:25:41.331Z,59.37
2022-10-19T08:28:35.503Z,59.36
2022-10-19T08:31:29.655Z,59.37
2022-10-19T08:34:23.901Z,59.32
2022-10-19T08:37:26.291Z,59.31
2022-10-19T08:40:30.450Z,59.27
2022-10-19T08:43:28.223Z,59.24
2022-10-19T08:46:24.932Z,59.23
2022-10-19T08:49:22.698Z,59.22
2022-10-19T08:52:19.796Z,59.17
2022-10-19T08:55:19.664Z,59.17
2022-10-19T08:58:29.885Z,59.17
2022-10-19T09:01:37.587Z,59.17
2022-10-19T09:04:34.114Z,59.17
2022-10-19T09:07:32.602Z,59.13
2022-10-19T09:10:28.414Z,59.09
2022-10-19T09:13:36.451Z,59.13
2022-10-19T09:16:42.894Z,59.10
2022-10-19T09:19:37.010Z,59.05
2022-10-19T09:22:34.518Z,59.00
2022-10-19T09:25:29.516Z,58.90
2022-10-19T09:28:44.560Z,58.89
2022-10-19T09:31:40.935Z,58.85
2022-10-19T09:34:37.811Z,58.83
2022-10-19T09:37:32.459Z,58.83
2022-10-19T09:40:29.103Z,58.82
2022-10-19T09:43:23.946Z,58.80
2022-10-19T09:46:26.234Z,58.73
2022-10-19T09:49:20.755Z,58.67
2022-10-19T09:52:38.186Z,58.69
2022-10-19T09:55:38.864Z,58.71
2022-10-19T09:58:33.685Z,58.72
2022-10-19T10:01:41.457Z,58.71
2022-10-19T10:04:37.257Z,58.72
2022-10-19T10:07:36.975Z,58.77
2022-10-19T10:10:34.712Z,58.64
2022-10-19T10:13:30.030Z,58.53
2022-10-19T10:16:24.952Z,58.62
2022-10-19T10:19:21.488Z,58.65
2022-10-19T10:22:27.063Z,58.66
2022-10-19T10:25:22.372Z,58.69
2022-10-19T10:28:24.462Z,58.65
2022-10-19T10:31:18.854Z,58.63
2022-10-19T10:34:23.149Z,58.66
2022-10-19T10:37:35.269Z,58.67
2022-10-19T10:40:32.237Z,58.66
2022-10-19T10:43:30.675Z,58.65
2022-10-19T10:46:27.624Z,58.59
2022-10-19T10:49:26.096Z,58.60
2022-10-19T10:52:21.356Z,58.61
2022-10-19T10:55:21.199Z,58.58
2022-10-19T10:58:19.561Z,58.57
2022-10-19T11:01:19.768Z,58.61
2022-10-19T11:04:16.790Z,58.58
2022-10-19T11:07:18.388Z,58.63
2022-10-19T11:10:21.842Z,58.66
2022-10-19T11:13:19.378Z,58.63
2022-10-19T11:16:18.195Z,58.64
2022-10-19T11:19:18.875Z,58.70
2022-10-19T11:22:26.377Z,58.65
2022-10-19T11:25:34.220Z,58.66
2022-10-19T11:28:41.405Z,58.61
2022-10-19T11:31:44.608Z,58.63
2022-10-19T11:34:50.003Z,58.86
2022-10-19T11:38:17.434Z,58.93
2022-10-19T11:41:18.542Z,59.10
2022-10-19T11:44:36.742Z,60.00
2022-10-19T11:47:59.916Z,60.69
2022-10-19T11:50:58.968Z,60.87
2022-10-19T11:54:16.693Z,61.01
2022-10-19T11:57:18.428Z,60.88
2022-10-19T12:00:37.606Z,60.71
2022-10-19T12:03:58.528Z,60.48
2022-10-19T12:07:00.032Z,60.33
2022-10-19T12:09:59.316Z,60.15
2022-10-19T12:12:54.014Z,59.87
2022-10-19T12:15:49.717Z,59.86
2022-10-19T12:18:46.157Z,59.75
2022-10-19T12:21:45.655Z,59.60
2022-10-19T12:24:42.303Z,59.29
2022-10-19T12:27:38.684Z,59.11
2022-10-19T12:30:33.086Z,59.04
2022-10-19T12:33:30.805Z,59.03
2022-10-19T12:36:30.557Z,59.03
2022-10-19T12:39:31.762Z,58.93
2022-10-19T12:42:29.468Z,58.90
2022-10-19T12:45:36.180Z,58.88
2022-10-19T12:48:39.584Z,58.89
2022-10-19T12:51:56.482Z,58.90
2022-10-19T12:55:05.902Z,58.67
2022-10-19T12:58:36.729Z,58.57
2022-10-19T13:01:44.734Z,58.28
2022-10-19T13:04:44.295Z,57.90
2022-10-19T13:07:58.720Z,57.71
2022-10-19T13:16:35.296Z,56.99
2022-10-19T13:20:51.203Z,56.57
2022-10-19T13:24:00.967Z,56.01
2022-10-19T13:27:49.290Z,55.27
2022-10-19T13:31:16.618Z,54.84
2022-10-19T13:34:15.098Z,54.94
2022-10-19T13:37:14.237Z,55.23
2022-10-19T13:40:24.814Z,54.90
2022-10-19T13:43:23.441Z,54.82
2022-10-19T13:46:19.878Z,54.60
2022-10-19T13:49:45.272Z,54.07
2022-10-19T13:57:06.206Z,53.66
2022-10-19T14:00:14.764Z,53.81
2022-10-19T14:03:20.722Z,53.51
2022-10-19T14:06:28.637Z,53.73
2022-10-19T14:10:00.102Z,52.94
2022-10-19T14:12:54.679Z,52.68
2022-10-19T14:16:01.629Z,51.90
2022-10-19T14:19:15.426Z,51.48
2022-10-19T14:22:27.312Z,52.13
2022-10-19T14:25:27.064Z,52.30
2022-10-19T14:28:28.939Z,52.20
2022-10-19T14:31:40.232Z,51.95
2022-10-19T14:34:43.649Z,51.92
2022-10-19T14:37:38.521Z,52.02
2022-10-19T14:40:34.702Z,51.75
2022-10-19T14:43:30.057Z,51.46
2022-10-19T14:46:26.278Z,51.69
2022-10-19T14:49:19.074Z,51.94
2022-10-19T14:52:14.715Z,52.14
2022-10-19T14:55:17.630Z,52.12
2022-10-19T14:58:16.817Z,52.08
2022-10-19T15:01:11.040Z,52.04
2022-10-19T15:04:05.347Z,52.00
2022-10-19T15:06:59.754Z,52.18
2022-10-19T15:09:58.131Z,52.14
2022-10-19T15:12:52.802Z,52.22
2022-10-19T15:15:47.339Z,52.28
2022-10-19T15:18:49.494Z,52.35
2022-10-19T15:21:44.395Z,52.53
2022-10-19T15:24:40.475Z,52.64
2022-10-19T15:27:36.989Z,52.76
2022-10-19T15:30:34.912Z,52.86
2022-10-19T15:33:29.761Z,52.96
2022-10-19T15:36:27.635Z,53.02
2022-10-19T15:39:37.044Z,53.05
2022-10-19T15:42:41.022Z,53.13
2022-10-19T15:45:37.951Z,53.19
2022-10-19T15:48:50.026Z,53.24
2022-10-19T15:51:49.400Z,53.24
2022-10-19T15:54:44.012Z,53.22
2022-10-19T15:57:39.518Z,53.19
2022-10-19T16:00:34.672Z,53.32
2022-10-19T16:03:29.007Z,53.33
2022-10-19T16:06:24.859Z,53.43
2022-10-19T16:09:22.133Z,53.51
2022-10-19T16:12:16.694Z,53.55
2022-10-19T16:15:16.632Z,53.55
2022-10-19T16:18:12.582Z,53.58
2022-10-19T16:21:07.153Z,53.61
2022-10-19T16:24:02.848Z,53.65
2022-10-19T16:26:57.089Z,53.66
2022-10-19T16:29:51.616Z,53.69
2022-10-19T16:32:47.323Z,53.72
2022-10-19T16:35:43.077Z,53.72
2022-10-19T16:38:37.612Z,53.80
2022-10-19T16:41:32.045Z,53.85
2022-10-19T16:44:26.344Z,53.88
2022-10-19T16:47:20.645Z,54.04
2022-10-19T16:50:15.873Z,54.34
2022-10-19T16:53:11.257Z,54.57
2022-10-19T16:56:12.491Z,54.71
2022-10-19T16:59:18.858Z,54.88
2022-10-19T17:02:23.253Z,55.24
2022-10-19T17:05:25.934Z,55.44
2022-10-19T17:09:02.391Z,55.64
2022-10-19T17:11:53.239Z,55.67
2022-10-19T17:14:47.717Z,55.80
2022-10-19T17:17:44.116Z,55.86
2022-10-19T17:20:41.374Z,56.07
2022-10-19T17:23:36.060Z,56.27
2022-10-19T17:26:31.920Z,56.32
2022-10-19T17:29:26.333Z,56.33
2022-10-19T17:32:21.001Z,56.37
2022-10-19T17:35:15.336Z,56.46
2022-10-19T17:38:09.654Z,56.50
2022-10-19T17:41:09.387Z,56.57
2022-10-19T17:44:03.771Z,56.63
2022-10-19T17:46:58.454Z,56.67
2022-10-19T17:49:52.952Z,56.70
2022-10-19T17:52:47.146Z,56.78
2022-10-19T17:55:42.552Z,56.77
2022-10-19T17:58:40.268Z,56.82
2022-10-19T18:01:34.673Z,56.88
2022-10-19T18:04:29.259Z,56.99
2022-10-19T18:07:25.751Z,56.98
2022-10-19T18:10:20.420Z,57.00
2022-10-19T18:13:15.177Z,56.99
2022-10-19T18:16:11.672Z,57.02
2022-10-19T18:19:06.775Z,57.01
2022-10-19T18:22:01.051Z,57.02
2022-10-19T18:24:55.192Z,57.19
2022-10-19T18:27:49.719Z,57.49
2022-10-19T18:30:45.353Z,57.75
2022-10-19T18:33:40.235Z,57.92
2022-10-19T18:36:36.134Z,58.07
2022-10-19T18:39:31.773Z,58.20
2022-10-19T18:42:26.169Z,58.30
2022-10-19T18:45:20.543Z,58.58
2022-10-19T18:48:17.509Z,58.61
2022-10-19T18:51:13.236Z,58.73
2022-10-19T18:54:08.060Z,59.01
2022-10-19T18:57:02.998Z,59.03
2022-10-19T18:59:58.642Z,59.16
2022-10-19T19:02:58.090Z,59.31
2022-10-19T19:05:56.122Z,59.42
2022-10-19T19:08:56.408Z,59.55
2022-10-19T19:11:51.623Z,59.78
2022-10-19T19:14:49.543Z,59.90
2022-10-19T19:17:43.975Z,59.91
2022-10-19T19:20:40.899Z,60.04
2022-10-19T19:23:43.771Z,60.15
2022-10-19T19:26:41.333Z,60.17
2022-10-19T19:29:38.634Z,60.27
2022-10-19T19:32:33.041Z,60.27
2022-10-19T19:35:27.719Z,60.38
2022-10-19T19:38:21.847Z,60.46
2022-10-19T19:41:17.844Z,60.60
2022-10-19T19:44:12.137Z,60.73
2022-10-19T19:47:08.519Z,60.73
2022-10-19T19:50:03.106Z,60.94
2022-10-19T19:52:57.517Z,60.99
2022-10-19T19:55:51.828Z,61.07
2022-10-19T19:58:46.559Z,61.25
2022-10-19T20:01:41.028Z,61.26
2022-10-19T20:04:37.197Z,61.38
2022-10-19T20:07:32.228Z,61.47
2022-10-19T20:10:26.735Z,61.44
2022-10-19T20:13:21.154Z,61.54
2022-10-19T20:16:17.737Z,61.68
2022-10-19T20:19:14.033Z,61.67
2022-10-19T20:22:08.664Z,61.72
2022-10-19T20:25:03.277Z,61.80
2022-10-19T20:27:57.571Z,61.71
2022-10-19T20:31:01.143Z,61.66
2022-10-19T20:34:01.230Z,61.65
2022-10-19T20:36:55.639Z,61.65
2022-10-19T20:39:50.215Z,61.71
2022-10-19T20:42:44.730Z,61.88
2022-10-19T20:45:39.067Z,61.81
2022-10-19T20:48:33.671Z,61.83
2022-10-19T20:51:31.916Z,61.82
2022-10-19T20:54:27.318Z,61.71
2022-10-19T20:57:21.844Z,61.77
2022-10-19T21:00:18.844Z,61.90
2022-10-19T21:03:13.175Z,61.99
2022-10-19T21:06:09.647Z,62.06
2022-10-19T21:09:04.049Z,68.75
2022-10-19T21:11:58.756Z,68.65
2022-10-19T21:14:53.444Z,60.17
2022-10-19T21:17:48.659Z,55.85
2022-10-19T21:20:43.047Z,55.75
2022-10-19T21:23:37.258Z,56.35
2022-10-19T21:26:32.801Z,57.16
2022-10-19T21:29:27.325Z,57.72
2022-10-19T21:32:22.087Z,58.51
2022-10-19T21:35:16.363Z,59.09
2022-10-19T21:38:10.524Z,59.63
2022-10-19T21:41:05.745Z,60.00
2022-10-19T21:44:00.096Z,60.07
2022-10-19T21:46:54.794Z,60.38
2022-10-19T21:49:49.465Z,60.58
2022-10-19T21:52:44.067Z,60.79
2022-10-19T21:55:39.117Z,60.80
2022-10-19T21:58:33.286Z,60.95
2022-10-19T22:01:28.800Z,60.94
2022-10-19T22:08:15.339Z,60.94
2022-10-19T22:11:13.340Z,61.07
2022-10-19T22:14:07.912Z,61.13
2022-10-19T22:17:01.878Z,61.17
2022-10-19T22:19:56.453Z,61.23
2022-10-19T22:22:52.772Z,61.19
2022-10-19T22:25:51.559Z,61.16
2022-10-19T22:28:46.100Z,61.20
2022-10-19T22:31:40.455Z,61.24
2022-10-19T22:34:36.037Z,61.30
2022-10-19T22:37:30.676Z,61.24
2022-10-19T22:40:25.130Z,61.26
2022-10-19T22:43:19.449Z,61.24
2022-10-19T22:46:13.949Z,61.22
2022-10-19T22:52:09.334Z,61.13
2022-10-19T22:55:03.552Z,61.21
2022-10-19T22:57:58.455Z,61.17
2022-10-19T23:01:04.468Z,61.09
2022-10-19T23:03:58.812Z,61.07
2022-10-19T23:06:53.189Z,61.10
2022-10-19T23:09:47.287Z,60.97
2022-10-19T23:12:41.522Z,61.01
2022-10-19T23:15:35.606Z,60.96
2022-10-19T23:18:30.031Z,60.95
2022-10-19T23:21:24.228Z,60.90
2022-10-19T23:24:18.479Z,60.84
2022-10-19T23:27:13.601Z,60.84
2022-10-19T23:30:09.979Z,60.76
2022-10-19T23:33:04.121Z,60.76
2022-10-19T23:36:02.173Z,60.73
2022-10-19T23:38:56.803Z,60.78
2022-10-19T23:41:51.373Z,60.65
2022-10-19T23:44:45.981Z,60.61
2022-10-19T23:47:40.161Z,60.55
2022-10-19T23:50:34.701Z,60.50
2022-10-19T23:53:29.202Z,60.44
2022-10-19T23:56:24.672Z,60.35
2022-10-19T23:59:19.389Z,60.30
